White Creek, New York
Current Conditions -  °F | °C
As of 6:54 PM on Friday 24 Oct 2014 (Local Time) from KDDH Reporting Station
Overcast Overcast  
Wind Chill: 41°   Ceiling: 1700
Heat Index: 45°   Visibility: 10mi
Dew Point: 42°   Wind: 7mph
Humidity: 90%   Direction: 300°WNW
Pressure: 29.82"   Gusts: NA
Location:  42.9693°N, 73.3467°W
Report Text: KDDH 242254Z AUTO 30006KT 10SM BKN017 BKN022 OVC027 07/06 A2982 RMK AO2 SLP102 T00720056
Loading
Personal Weather Stations






























Interactive Weather Map New forecast layout! Learn more

10-Day Weather Forecast

Advertisements
Track Severe Weather on mobile